Monroe, IA (50170)

1:40 PM CST on December 03, 2016 (GMT -0600)
Rural | | Change Station

Elev 922 ft 41.55 °N, 93.12 °W | Updated 27 seconds ago

Overcast
Overcast
39.6 °F
Feels Like 37 °F
N
4.2
Wind Variable Wind from SSE
Gusts 4.9 mph

Today
High -- | Low -- °F
--% Chance of Precip.
Yesterday
High -- | Low -- °F
Precip. -- in
Pressure 30.27 in
Visibility 9.0 miles
Clouds Overcast 2100 ft
Windchill 37 °F
Dew Point 29 °F
Humidity 65%
Rainfall 0.00 in
Snow Depth Not available.
7:22 AM 4:42 PM
Waxing Crescent, 16% visible
METAR KTNU 031935Z AUTO 17006KT 9SM OVC021 03/M01 A3027 RMK AO2 PWINO
Pressure 30.27 in
Visibility 9.0 miles
Clouds Overcast 2100 ft
Windchill 37 °F
Dew Point 29 °F
Humidity 65%
Rainfall 0.00 in
Snow Depth Not available.
7:22 AM 4:42 PM
Waxing Crescent, 16% visible
METAR KTNU 031935Z AUTO 17006KT 9SM OVC021 03/M01 A3027 RMK AO2 PWINO

10-Day Weather Forecast

Almanac

Astronomy

Dec. 03, 2016 Rise Set
Actual Time
Civil Twilight
Nautical Twilight
Astronomical Twilight
Moon
Length of Visible Light
Length of Day
Tomorrow will be .
, % of the Moon is Illuminated

Today's Extremes

State Highs State Lows

Community

WunderPhotos

Upload Photos

1,955,455 photos uploaded!

WunderBlog® & News

Nearby

Air Quality

  Air Quality AQ Index Pollutant
Not available.

Snow Depth

Station Depth Elevation

Earthquake Activity

City Distance Mag. Time & Date
Minimum magnitude displayed is 2.5.

Coastal Water Temperatures

Place Temperature

Stations

Nearby Weather Stations

Station Location Temp. Windchill Dew Point Humidity Wind Precip. Elev Updated Type
                   

Watches & Warnings

There are currently no watches in effect.